Time;durP1;ratioP1;P1;durP2;ratioP2;P2;SDS_P1;SDS_P2;PMS_P1;PMS_P2;Temp;Humidity;BMP_temperature;BMP_pressure;BME280_temperature;BME280_humidity;BME280_pressure;Samples;Min_cycle;Max_cycle;Signal;HPM_P1;HPM_P2
2022/12/25 12:58:49;;;;;;;20.73;12.07;;;;;;;8.43;72.41;100657.92;2511334;78;30816;-82
2022/12/25 13:03:18;;;;;;;17.70;11.33;;;;;;;8.43;72.48;100656.62;2448895;78;25573;-82
2022/12/25 13:07:31;;;;;;;15.00;9.33;;;;;;;8.55;72.57;100659.22;2477776;78;25654;-85
2022/12/25 13:11:44;;;;;;;;;;;;;;;;;;;;;
2022/12/25 13:15:30;;;;;;;12.90;9.38;;;;;;;9.16;72.26;100650.52;2474006;78;25640;-84
2022/12/25 13:19:05;;;;;;;10.88;8.48;;;;;;;9.49;71.89;100643.37;2473434;78;25694;-86
2022/12/25 13:23:01;;;;;;;12.68;8.88;;;;;;;9.79;71.47;100643.87;2409036;81;25683;-83
2022/12/25 13:26:25;;;;;;;;;;;;;;;10.07;71.04;100656.88;2383560;83;25725;-83
2022/12/25 13:29:57;;;;;;;10.85;8.58;;;;;;;10.29;70.52;100661.05;2381154;83;25703;-83
2022/12/25 13:33:34;;;;;;;12.13;8.78;;;;;;;10.48;70.13;100670.27;2378525;82;25819;-85
2022/12/25 13:37:23;;;;;;;14.50;8.63;;;;;;;10.66;69.71;100671.61;2378109;81;25739;-86
2022/12/25 13:45:25;;;;;;;13.65;9.03;;;;;;;10.95;68.79;100675.03;2375718;83;25802;-84
2022/12/25 13:48:59;;;;;;;12.82;8.45;;;;;;;11.08;68.46;100679.73;2303521;84;25745;-81
2022/12/25 13:52:40;;;;;;;16.40;9.23;;;;;;;11.18;68.15;100684.34;2302836;85;25920;-83
2022/12/25 13:56:06;;;;;;;12.45;9.40;;;;;;;11.25;67.75;100686.27;2294948;85;25745;-83
2022/12/25 14:03:34;;;;;;;15.60;10.40;;;;;;;11.38;67.08;100700.95;2275277;86;25815;-83
2022/12/25 14:07:18;;;;;;;12.53;9.80;;;;;;;11.42;66.85;100694.53;2260251;86;25762;-83
2022/12/25 14:11:03;;;;;;;19.82;10.48;;;;;;;11.45;66.67;100684.59;2248114;88;25425;-85
2022/12/25 14:14:41;;;;;;;16.50;10.53;;;;;;;11.44;66.30;100685.41;2245814;87;25704;-84
2022/12/25 14:18:26;;;;;;;19.45;11.20;;;;;;;11.53;66.05;100703.50;2247176;86;25788;-84
2022/12/25 14:22:06;;;;;;;15.78;10.65;;;;;;;11.55;65.86;100710.96;2266997;85;25729;-83
2022/12/25 14:25:35;;;;;;;18.00;10.38;;;;;;;11.57;65.59;100713.17;2281804;86;25757;-83
2022/12/25 14:32:51;;;;;;;17.82;11.25;;;;;;;11.61;65.17;100705.02;2135903;91;25744;-83
2022/12/25 14:36:22;;;;;;;20.35;10.82;;;;;;;11.64;65.01;100715.51;2041884;96;25859;-81
2022/12/25 14:40:22;;;;;;;18.17;11.90;;;;;;;11.64;64.87;100710.28;2037370;96;25785;-84
2022/12/25 14:44:01;;;;;;;15.88;11.03;;;;;;;11.66;64.68;100715.13;2033397;97;25820;-81
2022/12/25 14:47:36;;;;;;;19.52;12.50;;;;;;;11.67;64.52;100712.09;2033967;97;26406;-85
2022/12/25 14:51:18;;;;;;;18.98;11.78;;;;;;;11.67;64.38;100710.36;2032276;97;25784;-84
2022/12/25 14:55:15;;;;;;;20.27;11.75;;;;;;;11.69;64.25;100721.74;1976067;100;25882;-82
2022/12/25 14:59:00;;;;;;;;;;;;;;;;;;;;;
2022/12/25 15:02:18;;;;;;;22.60;11.78;;;;;;;11.69;64.01;100716.95;2045069;96;25840;-84
2022/12/25 15:05:46;;;;;;;16.20;10.40;;;;;;;11.70;63.91;100716.09;2034199;93;25788;-84
2022/12/25 15:09:26;;;;;;;20.40;11.97;;;;;;;11.70;63.82;100720.89;2110657;92;25691;-83
2022/12/25 15:14:08;;;;;;;17.37;11.78;;;;;;;11.76;63.65;100725.39;2638573;74;31339;-82
2022/12/25 15:17:37;;;;;;;20.62;11.50;;;;;;;11.70;63.60;100732.64;2505750;76;25861;-84
2022/12/25 15:21:06;;;;;;;21.95;12.58;;;;;;;11.58;63.30;100704.94;2484835;77;25849;-83
2022/12/25 15:25:29;;;;;;;20.25;12.00;;;;;;;11.58;63.30;100704.94;2484595;79;25765;-84
2022/12/25 15:29:06;;;;;;;22.67;12.13;;;;;;;11.71;63.39;100724.38;2475234;77;25991;-82
2022/12/25 15:32:54;;;;;;;24.25;12.50;;;;;;;11.71;63.28;100720.06;2468576;78;25701;-78
2022/12/25 15:36:35;;;;;;;21.25;13.40;;;;;;;11.71;63.22;100720.06;2470550;78;25619;-80
2022/12/25 15:40:08;;;;;;;19.32;11.75;;;;;;;11.70;63.14;100718.27;2473879;79;25738;-85
2022/12/25 15:43:31;;;;;;;25.02;13.68;;;;;;;11.70;63.09;100729.16;2473966;78;25858;-84
2022/12/25 15:47:01;;;;;;;18.95;12.73;;;;;;;11.70;63.05;100730.45;2472262;79;25750;-81
2022/12/25 15:50:41;;;;;;;;;;;;;;;;;;;;;
2022/12/25 15:58:01;;;;;;;23.67;14.10;;;;;;;11.70;62.89;100739.59;2393841;81;25809;-79
2022/12/25 16:01:24;;;;;;;20.90;12.25;;;;;;;11.69;62.80;100740.45;2372892;81;26055;-79
2022/12/25 16:05:01;;;;;;;;;;;;;;;;;;;;;
2022/12/25 16:08:29;;;;;;;21.85;13.38;;;;;;;11.68;62.71;100741.31;2377910;81;25717;-83
2022/12/25 16:12:04;;;;;;;25.08;13.65;;;;;;;11.67;62.65;100734.30;2400363;81;25831;-77
2022/12/25 16:15:26;;;;;;;27.35;16.93;;;;;;;11.67;62.64;100732.56;2447022;80;25675;-82
2022/12/25 16:18:49;;;;;;;25.97;14.00;;;;;;;11.67;62.59;100726.03;2388829;80;25770;-83
2022/12/25 16:22:18;;;;;;;27.10;15.78;;;;;;;11.67;62.56;100723.85;2421426;79;25798;-78
2022/12/25 16:25:43;;;;;;;26.12;15.30;;;;;;;11.66;62.53;100726.89;2415838;80;35407;-76
2022/12/25 16:29:14;;;;;;;28.65;14.40;;;;;;;11.66;62.51;100721.66;2390871;80;25655;-78
2022/12/25 16:32:52;;;;;;;30.08;15.65;;;;;;;11.67;62.47;100723.42;2428721;81;25783;-83
2022/12/25 16:36:13;;;;;;;32.93;16.02;;;;;;;11.66;62.44;100734.72;2420801;80;25735;-84
2022/12/25 16:39:43;;;;;;;29.87;16.45;;;;;;;11.67;62.41;100746.92;2408755;80;26317;-83
2022/12/25 16:43:11;;;;;;;31.02;16.07;;;;;;;11.67;62.38;100737.78;2417940;80;25719;-80
2022/12/25 16:46:50;;;;;;;35.25;15.70;;;;;;;11.67;62.37;100742.13;2423065;80;25592;-83
2022/12/25 16:50:15;;;;;;;29.45;14.95;;;;;;;11.68;62.33;100745.23;2394486;80;25596;-83
2022/12/25 16:53:46;;;;;;;34.78;17.17;;;;;;;11.67;62.32;100739.09;2496275;75;25670;-81
2022/12/25 16:57:19;;;;;;;31.65;16.15;;;;;;;11.68;62.29;100736.09;2519946;76;25646;-81
2022/12/25 17:00:44;;;;;;;26.35;15.48;;;;;;;11.67;62.27;100729.95;2504775;77;25798;-84
2022/12/25 17:04:12;;;;;;;33.75;16.80;;;;;;;11.68;62.23;100731.73;2488484;78;25703;-76
2022/12/25 17:07:43;;;;;;;28.60;15.43;;;;;;;11.68;62.21;100726.94;2567492;76;25840;-84
2022/12/25 17:11:24;;;;;;;;;;;;;;;;;;;;;
2022/12/25 17:15:15;;;;;;;35.78;17.75;;;;;;;11.69;62.15;100726.97;2506848;77;25654;-76
2022/12/25 17:18:48;;;;;;;31.75;16.30;;;;;;;11.69;62.13;100717.83;2373857;80;25688;-76
2022/12/25 17:22:21;;;;;;;26.90;14.18;;;;;;;11.70;62.12;100717.39;2400541;80;25701;-77
2022/12/25 17:25:45;;;;;;;30.15;15.18;;;;;;;11.83;64.04;100717.73;2413420;80;26499;-77
2022/12/25 17:29:19;;;;;;;29.85;15.72;;;;;;;11.96;63.77;100712.84;2419439;80;26187;-74
2022/12/25 17:32:50;;;;;;;32.28;16.12;;;;;;;11.97;64.02;100722.00;2411071;80;25644;-75
2022/12/25 17:36:22;;;;;;;31.25;15.40;;;;;;;11.97;64.03;100709.37;2405162;80;26084;-78
2022/12/25 17:40:14;;;;;;;30.20;16.87;;;;;;;11.94;63.85;100706.25;2379938;80;25862;-80
2022/12/25 17:43:45;;;;;;;33.05;17.52;;;;;;;11.91;63.82;100702.69;2372389;81;25900;-80
2022/12/25 17:47:21;;;;;;;34.75;18.05;;;;;;;11.87;63.73;100693.89;2373311;81;25755;-80
2022/12/25 17:50:55;;;;;;;33.98;17.67;;;;;;;11.86;63.71;100688.65;2367853;81;25977;-81
2022/12/25 17:54:18;;;;;;;43.80;19.02;;;;;;;11.82;63.65;100693.77;2374057;82;25656;-80
2022/12/25 17:57:43;;;;;;;34.45;16.77;;;;;;;11.80;63.56;100692.83;2361013;81;25775;-76
2022/12/25 18:01:25;;;;;;;30.32;16.97;;;;;;;11.78;63.51;100680.19;2374187;81;26383;-77
2022/12/25 18:04:58;;;;;;;35.88;17.92;;;;;;;11.78;63.46;100675.38;2387069;81;26517;-82
2022/12/25 18:08:25;;;;;;;35.25;18.92;;;;;;;11.75;63.39;100672.27;2412173;81;25825;-78
2022/12/25 18:11:55;;;;;;;35.65;18.45;;;;;;;11.73;63.33;100681.78;2407794;79;25923;-81
2022/12/25 18:15:21;;;;;;;32.48;18.50;;;;;;;11.73;63.27;100686.13;2440126;79;25730;-75
2022/12/25 18:18:46;;;;;;;36.08;17.57;;;;;;;11.71;63.18;100691.33;2455325;79;26152;-76
2022/12/25 18:22:08;;;;;;;35.40;18.57;;;;;;;11.69;63.15;100690.41;2455365;79;26025;-79
2022/12/25 18:25:46;;;;;;;32.08;16.80;;;;;;;11.68;63.08;100693.87;2439329;79;25779;-83
2022/12/25 18:29:12;;;;;;;37.10;18.75;;;;;;;11.68;63.03;100695.17;2413424;79;25813;-78
2022/12/25 18:32:44;;;;;;;35.63;18.00;;;;;;;11.66;62.99;100698.16;2439693;78;25719;-82
2022/12/25 18:36:36;;;;;;;38.42;18.12;;;;;;;11.65;62.94;100699.02;2455523;78;25903;-82
2022/12/25 18:40:03;;;;;;;37.55;18.48;;;;;;;11.64;62.88;100688.52;2468777;78;25664;-83
2022/12/25 18:43:29;;;;;;;31.07;17.42;;;;;;;11.62;62.85;100700.67;2431934;79;25569;-84
2022/12/25 18:47:05;;;;;;;36.58;19.35;;;;;;;11.61;62.80;100693.66;2469315;79;25656;-82
2022/12/25 18:50:49;;;;;;;41.02;18.98;;;;;;;11.59;62.75;100697.13;2469760;79;26352;-82
2022/12/25 18:54:19;;;;;;;35.25;19.65;;;;;;;11.58;62.70;100695.38;2473766;79;25584;-81
2022/12/25 18:57:53;;;;;;;34.92;18.95;;;;;;;11.58;62.69;100695.80;2465525;78;26441;-84
2022/12/25 19:01:29;;;;;;;34.73;19.48;;;;;;;11.56;62.65;100686.61;2531959;76;25755;-82
2022/12/25 19:04:50;;;;;;;32.90;17.27;;;;;;;11.55;62.64;100683.97;2544255;77;25647;-80
2022/12/25 19:08:24;;;;;;;34.33;18.92;;;;;;;11.55;62.61;100684.85;2546714;76;25612;-83
2022/12/25 19:11:58;;;;;;;32.45;18.50;;;;;;;11.55;62.57;100678.75;2572559;76;25937;-83
2022/12/25 19:15:21;;;;;;;36.90;19.17;;;;;;;11.55;62.54;100665.69;2559187;76;25623;-81
2022/12/25 19:18:54;;;;;;;35.85;19.10;;;;;;;11.54;62.52;100662.20;2588910;76;25758;-81
2022/12/25 19:22:28;;;;;;;34.83;19.32;;;;;;;11.55;62.50;100653.94;2582505;76;25324;-80
2022/12/25 19:25:54;;;;;;;31.05;18.45;;;;;;;11.54;62.48;100652.16;2585296;76;25787;-80
2022/12/25 19:29:22;;;;;;;33.80;19.20;;;;;;;11.53;62.45;100648.66;2517631;76;25790;-79
2022/12/25 19:33:05;;;;;;;33.92;18.35;;;;;;;11.53;62.41;100640.83;2522488;77;26350;-80
2022/12/25 19:36:36;;;;;;;35.43;19.50;;;;;;;11.53;62.39;100639.95;2446784;79;25669;-81
2022/12/25 19:40:03;;;;;;;29.50;17.30;;;;;;;11.52;62.37;100644.73;2453465;78;26033;-80
2022/12/25 19:43:49;;;;;;;33.10;18.73;;;;;;;11.52;62.34;100637.77;2479092;76;25670;-80
2022/12/25 19:47:15;;;;;;;34.43;18.82;;;;;;;11.51;62.33;100630.80;2590214;75;25645;-80
2022/12/25 19:50:40;;;;;;;34.08;17.57;;;;;;;11.50;62.32;100645.98;2588781;76;25653;-81
2022/12/25 19:54:04;;;;;;;23.83;16.57;;;;;;;11.50;62.30;100641.19;2546976;76;25713;-81
2022/12/25 19:57:40;;;;;;;30.32;18.17;;;;;;;11.49;62.28;100648.14;2560069;76;25704;-82
2022/12/25 20:01:07;;;;;;;28.42;17.50;;;;;;;11.50;62.26;100649.02;2461372;77;27097;-82
2022/12/25 20:04:39;;;;;;;32.42;16.93;;;;;;;11.50;62.25;100656.84;2437085;79;25736;-81
2022/12/25 20:08:13;;;;;;;29.42;17.20;;;;;;;11.49;62.23;100646.83;2441244;79;25765;-81
2022/12/25 20:11:48;;;;;;;29.75;17.25;;;;;;;11.50;62.22;100650.32;2445015;79;25727;-81
2022/12/25 20:15:18;;;;;;;27.60;16.52;;;;;;;11.49;62.20;100652.48;2443742;79;25680;-82
2022/12/25 20:18:44;;;;;;;28.07;17.05;;;;;;;11.49;62.19;100653.79;2441794;79;26408;-82
2022/12/25 20:22:15;;;;;;;26.90;16.37;;;;;;;11.49;62.17;100644.66;2443862;79;26512;-82
2022/12/25 20:25:47;;;;;;;29.72;18.25;;;;;;;11.49;62.16;100641.61;2433674;79;25773;-83
2022/12/25 20:29:22;;;;;;;31.68;17.15;;;;;;;11.49;62.14;100636.82;2300309;84;25890;-84
2022/12/25 20:32:54;;;;;;;30.43;16.97;;;;;;;11.48;62.13;100637.67;2253810;86;25772;-81
2022/12/25 20:36:22;;;;;;;28.75;16.60;;;;;;;11.48;62.11;100636.37;2253698;86;25740;-84
2022/12/25 20:39:55;;;;;;;28.25;16.10;;;;;;;11.48;62.08;100625.92;2218873;81;25647;-84
2022/12/25 20:43:19;;;;;;;26.65;16.80;;;;;;;11.46;62.07;100628.91;2209904;88;26482;-82
2022/12/25 20:46:45;;;;;;;27.02;15.88;;;;;;;11.45;62.05;100616.28;2207921;89;25859;-82
2022/12/25 20:50:46;;;;;;;23.32;15.65;;;;;;;11.46;62.04;100617.16;2175283;89;26108;-82
2022/12/25 20:54:14;;;;;;;23.27;15.72;;;;;;;11.46;62.04;100609.33;2173813;89;25847;-85
2022/12/25 20:57:42;;;;;;;23.55;16.73;;;;;;;11.46;62.02;100601.50;2210208;89;25880;-81
2022/12/25 21:01:18;;;;;;;19.82;14.30;;;;;;;11.45;62.01;100597.13;2209305;87;26512;-82
2022/12/25 21:05:10;;;;;;;21.27;14.13;;;;;;;11.45;62.00;100599.74;2221887;86;25830;-84
2022/12/25 21:09:08;;;;;;;19.42;14.43;;;;;;;11.44;61.99;100588.81;2145749;90;26633;-82
2022/12/25 21:12:39;;;;;;;20.12;15.08;;;;;;;11.42;61.97;100584.88;2180631;88;25637;-82
2022/12/25 21:16:11;;;;;;;20.30;14.20;;;;;;;11.43;61.94;100580.53;2176922;88;25789;-82
2022/12/25 21:19:36;;;;;;;15.90;12.98;;;;;;;11.41;61.92;100581.83;2181553;88;26292;-81
2022/12/25 21:23:06;;;;;;;20.17;13.20;;;;;;;11.39;61.92;100584.80;2181376;88;25813;-81
2022/12/25 21:26:30;;;;;;;21.97;14.53;;;;;;;11.39;61.94;100576.09;2159299;90;25851;-81
2022/12/25 21:30:05;;;;;;;25.37;14.13;;;;;;;11.38;61.90;100566.52;2238982;86;25308;-84
2022/12/25 21:37:30;;;;;;;19.85;14.60;;;;;;;11.35;61.86;100571.23;2065189;93;25863;-82
2022/12/25 21:41:23;;;;;;;20.57;15.03;;;;;;;11.33;61.85;100564.66;1986482;96;26442;-84
2022/12/25 21:44:49;;;;;;;19.00;13.60;;;;;;;11.32;61.83;100557.68;1984235;97;25802;-82
2022/12/25 21:48:14;;;;;;;18.10;12.70;;;;;;;11.31;61.81;100564.18;1976616;94;25862;-83
2022/12/25 21:56:19;;;;;;;20.68;14.30;;;;;;;11.46;62.66;100555.38;2112922;91;26185;-84
2022/12/25 21:59:54;;;;;;;21.48;14.83;;;;;;;11.43;62.45;100543.98;2113700;92;25786;-84
2022/12/25 22:03:23;;;;;;;21.97;13.58;;;;;;;11.40;62.43;100542.19;2145488;90;26375;-82
2022/12/25 22:10:38;;;;;;;17.35;14.07;;;;;;;11.33;62.37;100528.11;2119760;92;25839;-86
2022/12/25 22:21:26;;;;;;;23.00;13.60;;;;;;;11.34;63.92;100506.84;2133538;92;25846;-81
2022/12/25 22:25:02;;;;;;;16.42;13.58;;;;;;;11.86;64.55;100501.86;2121370;91;25815;-84
2022/12/25 22:28:30;;;;;;;18.07;12.88;;;;;;;12.23;64.48;100496.50;2084606;93;25855;-80
2022/12/25 22:31:58;;;;;;;24.07;15.45;;;;;;;12.48;64.05;100500.42;2134230;89;25894;-86
2022/12/25 22:36:00;;;;;;;21.42;14.58;;;;;;;12.40;63.41;100486.78;2230390;83;25866;-84
2022/12/25 22:39:46;;;;;;;19.62;15.13;;;;;;;12.24;63.00;100483.00;2376173;82;25705;-85
2022/12/25 22:43:10;;;;;;;21.70;15.93;;;;;;;12.10;62.99;100467.06;2374020;82;25782;-85
2022/12/25 22:46:35;;;;;;;18.10;13.93;;;;;;;11.98;62.83;100471.64;2375213;81;25689;-85
2022/12/25 22:50:03;;;;;;;20.62;15.40;;;;;;;11.90;62.76;100469.72;2340882;83;25649;-79
2022/12/25 22:53:30;;;;;;;19.17;13.85;;;;;;;11.86;62.69;100474.44;2460310;79;25795;-79
2022/12/25 22:57:00;;;;;;;22.10;14.78;;;;;;;11.80;62.66;100466.88;2487238;78;25685;-84
2022/12/25 23:00:27;;;;;;;22.73;16.20;;;;;;;11.76;62.55;100460.27;2393673;80;26218;-81
2022/12/25 23:04:00;;;;;;;19.82;14.38;;;;;;;11.69;62.38;100445.34;2497716;77;25739;-78
2022/12/25 23:07:22;;;;;;;20.12;15.28;;;;;;;11.63;62.37;100443.90;2454127;79;25726;-83
2022/12/25 23:10:52;;;;;;;19.65;15.43;;;;;;;11.56;62.30;100445.08;2488788;77;25636;-79
2022/12/25 23:33:01;;;;;;;19.15;14.25;;;;;;;11.35;61.92;100420.72;2420291;80;25671;-79
2022/12/25 23:36:32;;;;;;;26.80;15.30;;;;;;;11.33;61.88;100417.61;2420162;80;25624;-82
2022/12/25 23:39:58;;;;;;;19.15;13.83;;;;;;;11.30;61.78;100411.89;2392821;80;25681;-81
2022/12/25 23:43:25;;;;;;;16.40;12.53;;;;;;;11.27;61.78;100424.00;2385700;81;25750;-84
2022/12/25 23:46:52;;;;;;;19.17;14.30;;;;;;;11.25;61.71;100416.16;2391860;81;25913;-80
2022/12/25 23:50:24;;;;;;;19.90;13.62;;;;;;;11.23;61.71;100415.66;2359290;79;25638;-79
2022/12/25 23:53:59;;;;;;;20.82;14.15;;;;;;;11.22;61.70;100399.55;2365100;81;25935;-79
2022/12/25 23:57:23;;;;;;;18.17;13.58;;;;;;;11.20;61.63;100399.93;2389445;81;25701;-80
